Time;durP1;ratioP1;P1;durP2;ratioP2;P2;SDS_P1;SDS_P2;PMS_P1;PMS_P2;Temp;Humidity;BMP_temperature;BMP_pressure;BME280_temperature;BME280_humidity;BME280_pressure;Samples;Min_cycle;Max_cycle;Signal;HPM_P1;HPM_P2
2023/04/08 00:00:03;;;;;;;1.15;1.13;;;;;;;5.21;84.61;99680.28;5055096;28;20578;-67
2023/04/08 00:02:37;;;;;;;1.40;1.27;;;;;;;5.13;84.86;99686.91;5055249;28;20053;-67
2023/04/08 00:05:07;;;;;;;2.38;1.95;;;;;;;5.11;84.43;99687.69;5054956;28;20057;-66
2023/04/08 00:07:36;;;;;;;2.03;1.73;;;;;;;5.10;84.51;99685.97;5054889;28;20229;-68
2023/04/08 00:10:06;;;;;;;1.80;1.40;;;;;;;5.11;84.85;99688.50;5054841;28;20052;-67
2023/04/08 00:12:35;;;;;;;2.30;2.10;;;;;;;5.08;84.93;99682.53;5054862;28;20049;-68
2023/04/08 00:15:07;;;;;;;0.43;0.43;;;;;;;5.06;84.69;99687.56;5054762;28;20368;-67
2023/04/08 00:17:36;;;;;;;1.38;1.27;;;;;;;5.00;84.70;99684.91;5054577;28;20051;-67
2023/04/08 00:20:05;;;;;;;0.60;0.60;;;;;;;4.94;85.06;99687.31;5055011;28;20124;-67
2023/04/08 00:22:34;;;;;;;;;;;;;;;4.87;84.67;99692.22;5055007;28;20095;-67
2023/04/08 00:25:05;;;;;;;1.35;1.25;;;;;;;4.84;85.11;99682.88;5054595;28;19921;-67
2023/04/08 00:27:34;;;;;;;0.98;0.98;;;;;;;4.82;84.95;99689.59;5054756;28;20069;-67
2023/04/08 00:30:06;;;;;;;1.33;1.25;;;;;;;4.85;84.81;99689.63;5054465;28;20056;-67
2023/04/08 00:32:35;;;;;;;1.20;1.10;;;;;;;4.87;85.34;99690.50;5086787;28;20045;-67
2023/04/08 00:35:04;;;;;;;1.77;1.60;;;;;;;4.84;85.15;99692.13;5054153;28;20053;-67
2023/04/08 00:37:33;;;;;;;1.13;0.70;;;;;;;4.84;85.12;99687.06;5054234;28;20049;-68
2023/04/08 00:40:03;;;;;;;2.30;1.98;;;;;;;4.81;85.08;99681.94;5053185;28;20044;-68
2023/04/08 00:42:32;;;;;;;3.65;1.38;;;;;;;4.84;85.17;99690.47;5054222;28;20049;-67
2023/04/08 00:45:01;;;;;;;12.45;1.63;;;;;;;4.86;85.38;99691.34;5054258;28;20496;-67
2023/04/08 00:47:31;;;;;;;1.90;1.58;;;;;;;4.81;84.91;99682.81;5054442;28;20116;-67
2023/04/08 00:50:00;;;;;;;1.73;1.30;;;;;;;4.86;85.00;99691.34;5052918;28;20056;-67
2023/04/08 00:52:29;;;;;;;0.30;0.30;;;;;;;4.80;85.07;99686.13;5054089;28;20380;-67
2023/04/08 00:54:58;;;;;;;0.97;0.93;;;;;;;4.76;85.00;99694.50;5053965;28;20278;-68
2023/04/08 00:57:27;;;;;;;1.27;1.17;;;;;;;4.70;84.96;99699.41;5036358;28;20060;-68
2023/04/08 00:59:56;;;;;;;0.60;0.60;;;;;;;4.65;84.96;99701.81;5053982;28;20072;-67
2023/04/08 01:02:30;;;;;;;0.68;0.68;;;;;;;4.67;84.59;99694.28;5054825;28;20617;-67
2023/04/08 01:05:05;;;;;;;0.25;0.25;;;;;;;4.69;84.80;99692.66;5052591;28;20398;-67
2023/04/08 01:07:37;;;;;;;1.13;0.70;;;;;;;4.77;85.16;99701.25;5052708;28;20095;-67
2023/04/08 01:10:15;;;;;;;1.33;1.23;;;;;;;4.74;84.57;99693.59;5052689;28;20041;-68
2023/04/08 01:12:50;;;;;;;0.20;0.20;;;;;;;4.75;84.74;99697.84;5053740;28;20127;-68
2023/04/08 01:15:20;;;;;;;0.98;0.88;;;;;;;4.67;84.75;99695.16;5054044;28;20075;-68
2023/04/08 01:17:53;;;;;;;1.33;1.25;;;;;;;4.68;84.19;99695.97;5052785;28;20053;-68
2023/04/08 01:20:25;;;;;;;0.82;0.82;;;;;;;4.71;84.49;99696.06;5054288;28;20071;-68
2023/04/08 01:23:08;;;;;;;0.40;0.40;;;;;;;4.71;84.23;99701.09;5052393;28;20064;-67
2023/04/08 01:25:39;;;;;;;0.38;0.38;;;;;;;4.64;83.66;99699.25;5052424;28;20049;-68
2023/04/08 01:28:13;;;;;;;0.20;0.20;;;;;;;4.60;84.01;99702.53;5053556;28;20118;-67
2023/04/08 01:30:44;;;;;;;1.65;1.55;;;;;;;4.60;83.73;99705.94;5053568;28;20041;-67
2023/04/08 01:33:16;;;;;;;0.38;0.38;;;;;;;4.60;83.64;99705.06;5053398;28;20049;-68
2023/04/08 01:35:46;;;;;;;1.15;1.08;;;;;;;4.59;84.14;99710.94;5053286;28;20450;-68
2023/04/08 01:38:18;;;;;;;0.38;0.38;;;;;;;4.62;84.23;99705.97;5053694;28;20368;-68
2023/04/08 01:40:50;;;;;;;0.35;0.35;;;;;;;4.65;84.08;99708.56;5053436;28;20048;-68
2023/04/08 01:43:21;;;;;;;1.55;0.60;;;;;;;4.64;83.97;99699.25;5053590;28;20049;-69
2023/04/08 01:45:56;;;;;;;0.50;0.50;;;;;;;4.68;84.04;99703.56;5053368;28;20095;-68
2023/04/08 01:48:27;;;;;;;0.22;0.22;;;;;;;4.73;84.04;99704.53;5068795;28;20064;-68
2023/04/08 01:50:58;;;;;;;1.67;0.85;;;;;;;4.72;84.23;99708.75;5053721;28;20106;-67
2023/04/08 01:53:27;;;;;;;0.25;0.25;;;;;;;4.77;83.83;99711.38;5068660;28;20044;-68
2023/04/08 01:56:02;;;;;;;0.97;0.63;;;;;;;4.79;84.02;99707.19;5053254;28;20045;-67
2023/04/08 01:58:39;;;;;;;0.68;0.65;;;;;;;4.85;84.22;99707.31;5052083;28;20081;-67
2023/04/08 02:01:12;;;;;;;3.15;1.90;;;;;;;4.87;83.79;99715.78;5053215;28;20045;-67
2023/04/08 02:03:44;;;;;;;0.20;0.20;;;;;;;4.91;83.71;99710.00;5053330;28;20475;-67
2023/04/08 02:06:14;;;;;;;0.50;0.50;;;;;;;4.87;83.42;99713.25;5053164;28;20048;-67
2023/04/08 02:08:45;;;;;;;0.50;0.50;;;;;;;4.85;83.34;99709.84;5052011;28;20499;-67
2023/04/08 02:11:14;;;;;;;0.20;0.20;;;;;;;4.92;84.14;99714.22;5052258;28;20491;-67
2023/04/08 02:13:45;;;;;;;1.23;1.05;;;;;;;4.95;83.31;99711.78;5051860;28;20056;-67
2023/04/08 02:16:22;;;;;;;0.22;0.22;;;;;;;4.94;83.73;99720.19;5053183;28;20048;-68
2023/04/08 02:18:57;;;;;;;0.43;0.43;;;;;;;4.96;83.87;99718.56;5057263;28;20514;-67
2023/04/08 02:21:33;;;;;;;0.60;0.60;;;;;;;5.00;83.48;99721.97;5056944;28;20049;-67
2023/04/08 02:24:08;;;;;;;0.40;0.40;;;;;;;5.03;83.45;99720.38;5056893;28;20060;-67
2023/04/08 02:26:38;;;;;;;0.50;0.50;;;;;;;5.09;83.84;99723.03;5057572;28;20048;-68
2023/04/08 02:29:13;;;;;;;0.30;0.30;;;;;;;5.01;83.15;99722.03;5072246;28;20049;-67
2023/04/08 02:31:43;;;;;;;0.60;0.60;;;;;;;4.95;83.25;99723.56;5056739;28;20123;-68
2023/04/08 02:34:16;;;;;;;0.57;0.57;;;;;;;4.97;83.03;99725.28;5056541;28;20511;-67
2023/04/08 02:36:46;;;;;;;0.40;0.40;;;;;;;4.90;83.20;99723.47;5056661;28;20495;-67
2023/04/08 02:39:15;;;;;;;0.20;0.20;;;;;;;4.83;83.33;99721.63;5056562;28;20055;-67
2023/04/08 02:41:43;;;;;;;0.30;0.30;;;;;;;4.81;83.06;99718.19;5056841;28;20511;-68
2023/04/08 02:44:14;;;;;;;0.23;0.23;;;;;;;4.90;83.64;99725.97;5057010;28;20079;-67
2023/04/08 02:46:43;;;;;;;0.40;0.40;;;;;;;4.97;83.42;99727.81;5056478;28;20071;-68
2023/04/08 02:49:11;;;;;;;0.38;0.38;;;;;;;4.98;83.02;99724.50;5056959;28;20462;-67
2023/04/08 02:51:40;;;;;;;2.55;1.58;;;;;;;4.97;82.87;99725.28;5056398;28;20087;-67
2023/04/08 02:54:09;;;;;;;0.30;0.30;;;;;;;4.92;82.54;99726.88;5055087;28;20047;-67
2023/04/08 02:56:38;;;;;;;0.50;0.50;;;;;;;4.91;82.85;99735.28;5056530;28;20125;-67
2023/04/08 02:59:06;;;;;;;0.53;0.43;;;;;;;4.91;82.66;99730.25;5056218;28;20128;-67
2023/04/08 03:01:37;;;;;;;0.32;0.32;;;;;;;4.87;82.84;99728.44;5056535;28;20078;-67
2023/04/08 03:04:06;;;;;;;0.20;0.20;;;;;;;4.91;82.64;99735.28;5056099;28;20132;-67
2023/04/08 03:06:35;;;;;;;0.40;0.40;;;;;;;4.89;83.00;99736.94;5056119;28;20091;-67
2023/04/08 03:09:04;;;;;;;0.37;0.33;;;;;;;4.86;82.70;99734.34;5056084;28;20083;-67
2023/04/08 03:11:33;;;;;;;0.40;0.40;;;;;;;4.89;82.40;99731.88;5055939;28;20051;-67
2023/04/08 03:14:02;;;;;;;0.20;0.20;;;;;;;4.84;82.61;99733.44;5056033;28;20045;-67
2023/04/08 03:16:31;;;;;;;0.28;0.28;;;;;;;4.82;82.87;99736.75;5055891;28;20037;-67
2023/04/08 03:19:01;;;;;;;0.30;0.30;;;;;;;4.83;83.13;99736.78;5055972;28;20041;-67
2023/04/08 03:21:31;;;;;;;0.40;0.40;;;;;;;4.83;82.49;99739.31;5056152;28;20521;-67
2023/04/08 03:23:59;;;;;;;0.20;0.20;;;;;;;4.82;82.61;99739.28;5055674;28;20045;-67
2023/04/08 03:26:28;;;;;;;0.40;0.40;;;;;;;4.81;82.67;99740.94;5056038;28;20033;-67
2023/04/08 03:28:57;;;;;;;0.40;0.40;;;;;;;4.85;82.76;99744.41;5055650;28;20483;-67
2023/04/08 03:31:26;;;;;;;0.30;0.30;;;;;;;4.82;82.71;99744.34;5055686;28;20056;-67
2023/04/08 03:33:55;;;;;;;0.30;0.30;;;;;;;4.78;83.27;99745.94;5055613;28;20483;-67
2023/04/08 03:36:25;;;;;;;0.50;0.50;;;;;;;4.80;83.21;99746.81;5055502;28;20111;-67
2023/04/08 03:38:54;;;;;;;0.70;0.70;;;;;;;4.83;82.77;99746.03;5055533;28;20041;-67
2023/04/08 03:41:23;;;;;;;0.32;0.32;;;;;;;4.86;82.89;99751.16;5055424;28;20041;-67
2023/04/08 03:43:52;;;;;;;0.30;0.30;;;;;;;4.86;82.72;99746.97;5055300;28;20051;-67
2023/04/08 03:46:21;;;;;;;0.30;0.30;;;;;;;4.69;83.28;99728.03;5055526;28;20281;-67
2023/04/08 03:48:50;;;;;;;0.20;0.20;;;;;;;4.77;82.84;99741.72;5055289;28;20052;-67
2023/04/08 03:51:19;;;;;;;0.65;0.65;;;;;;;4.80;82.96;99748.50;5055605;28;20045;-67
2023/04/08 03:53:49;;;;;;;0.20;0.20;;;;;;;4.80;82.94;99756.09;5055243;28;20072;-67
2023/04/08 03:56:19;;;;;;;0.28;0.28;;;;;;;4.77;83.09;99756.88;5055405;28;20064;-67
2023/04/08 03:58:48;;;;;;;0.30;0.30;;;;;;;4.69;83.12;99758.38;5055101;28;20049;-67
2023/04/08 04:01:17;;;;;;;0.30;0.30;;;;;;;4.68;83.13;99756.63;5055341;28;20041;-67
2023/04/08 04:03:46;;;;;;;0.20;0.20;;;;;;;4.67;83.15;99762.53;5055213;28;20036;-67
2023/04/08 04:06:15;;;;;;;0.90;0.80;;;;;;;4.65;82.55;99765.00;5054905;28;20064;-67
2023/04/08 04:08:43;;;;;;;0.80;0.65;;;;;;;4.67;82.65;99770.13;5054883;28;20041;-68
2023/04/08 04:11:14;;;;;;;0.33;0.33;;;;;;;4.73;82.80;99767.72;5054835;28;20088;-67
2023/04/08 04:13:43;;;;;;;0.90;0.80;;;;;;;4.75;82.70;99773.69;5055137;28;20530;-67
2023/04/08 04:16:11;;;;;;;0.68;0.68;;;;;;;4.69;82.63;99783.63;5055526;28;20095;-67
2023/04/08 04:18:41;;;;;;;0.60;0.60;;;;;;;4.67;83.11;99775.16;5054453;28;20059;-67
2023/04/08 04:21:09;;;;;;;0.50;0.50;;;;;;;4.69;82.79;99781.09;5054916;28;20127;-67
2023/04/08 04:23:38;;;;;;;0.40;0.40;;;;;;;4.79;82.59;99785.56;5054829;28;20037;-67
2023/04/08 04:26:09;;;;;;;0.32;0.32;;;;;;;4.85;82.82;99787.41;5054568;28;20091;-67
2023/04/08 04:28:40;;;;;;;0.88;0.82;;;;;;;4.83;82.88;99782.28;5054530;28;20104;-67
2023/04/08 04:31:18;;;;;;;2.25;1.73;;;;;;;4.83;82.94;99779.75;5054768;28;20473;-67
2023/04/08 04:33:47;;;;;;;0.32;0.32;;;;;;;4.85;82.63;99783.19;5054324;28;20057;-67
2023/04/08 04:36:16;;;;;;;0.45;0.45;;;;;;;4.89;82.98;99792.56;5054707;28;20114;-67
2023/04/08 04:38:45;;;;;;;0.55;0.55;;;;;;;4.92;82.41;99787.56;5054281;28;20045;-67
2023/04/08 04:41:16;;;;;;;0.30;0.30;;;;;;;4.98;82.62;99786.84;5053925;28;20470;-67
2023/04/08 04:43:46;;;;;;;0.30;0.30;;;;;;;5.02;82.99;99792.00;5054159;28;20052;-67
2023/04/08 04:46:15;;;;;;;0.50;0.50;;;;;;;5.04;83.02;99794.59;5054569;28;20045;-67
2023/04/08 04:48:44;;;;;;;0.67;0.67;;;;;;;5.02;82.85;99792.00;5054190;28;20041;-68
2023/04/08 04:51:13;;;;;;;0.20;0.20;;;;;;;5.02;83.26;99796.22;5054363;28;20696;-69
2023/04/08 04:53:41;;;;;;;0.25;0.25;;;;;;;5.02;83.68;99798.75;5054432;28;20037;-67
2023/04/08 04:56:11;;;;;;;0.73;0.73;;;;;;;5.00;83.66;99796.19;5054083;28;20049;-69
2023/04/08 04:58:40;;;;;;;0.20;0.20;;;;;;;5.01;83.95;99792.84;5054572;28;20442;-68
2023/04/08 05:01:11;;;;;;;;;;;;;;;4.99;84.50;99804.56;5054453;28;20037;-68
2023/04/08 05:03:40;;;;;;;0.22;0.22;;;;;;;4.94;84.23;99806.16;5054601;28;19927;-68
2023/04/08 05:06:08;;;;;;;1.43;1.33;;;;;;;4.94;84.66;99808.69;5053832;28;20124;-66
2023/04/08 05:08:37;;;;;;;0.30;0.30;;;;;;;4.99;84.94;99818.91;5054126;28;20499;-66
2023/04/08 05:11:09;;;;;;;0.30;0.30;;;;;;;4.96;84.76;99816.31;5053821;28;20069;-67
2023/04/08 05:13:38;;;;;;;0.30;0.30;;;;;;;4.95;84.67;99819.66;5069203;28;20106;-67
2023/04/08 05:16:07;;;;;;;0.50;0.50;;;;;;;5.00;85.19;99818.94;5052603;28;20044;-68
2023/04/08 05:18:38;;;;;;;0.30;0.30;;;;;;;4.98;84.57;99823.13;5053967;28;20487;-67
2023/04/08 05:21:07;;;;;;;0.63;0.63;;;;;;;4.99;84.91;99819.75;5053688;28;20045;-68
2023/04/08 05:23:36;;;;;;;0.57;0.57;;;;;;;4.98;84.46;99824.78;5053552;28;20037;-67
2023/04/08 05:26:07;;;;;;;0.37;0.37;;;;;;;4.97;84.39;99826.44;5053537;28;20082;-68
2023/04/08 05:28:36;;;;;;;0.65;0.65;;;;;;;4.91;84.16;99838.97;5052630;28;20044;-68
2023/04/08 05:31:05;;;;;;;0.50;0.47;;;;;;;4.87;83.65;99839.69;5053756;28;20091;-68
2023/04/08 05:33:34;;;;;;;0.30;0.30;;;;;;;4.86;83.54;99837.13;5052869;28;20045;-68
2023/04/08 05:36:05;;;;;;;0.20;0.20;;;;;;;4.83;83.48;99848.03;5053457;28;20037;-68
2023/04/08 05:38:34;;;;;;;0.30;0.30;;;;;;;4.79;82.96;99846.25;5053791;28;20040;-68
2023/04/08 05:41:03;;;;;;;0.45;0.45;;;;;;;4.79;83.15;99846.25;5053703;28;20590;-67
2023/04/08 05:43:33;;;;;;;0.40;0.40;;;;;;;4.83;83.17;99847.16;5053670;28;20049;-68
2023/04/08 05:46:06;;;;;;;0.73;0.73;;;;;;;4.84;82.82;99844.69;5053325;28;20171;-67
2023/04/08 05:48:36;;;;;;;0.25;0.25;;;;;;;4.75;82.94;99834.38;5053623;28;20398;-68
2023/04/08 05:51:06;;;;;;;0.90;0.90;;;;;;;4.86;82.58;99848.09;5054499;28;20040;-68
2023/04/08 05:53:35;;;;;;;0.30;0.30;;;;;;;4.88;82.57;99851.53;5057376;28;20045;-68
2023/04/08 05:56:05;;;;;;;0.25;0.25;;;;;;;4.91;82.36;99855.81;5057349;28;20499;-67
2023/04/08 05:58:33;;;;;;;0.75;0.75;;;;;;;4.92;82.16;99855.81;5057446;28;20037;-68
2023/04/08 06:01:02;;;;;;;0.47;0.47;;;;;;;4.92;82.30;99858.34;5057619;28;20118;-68
2023/04/08 06:03:31;;;;;;;0.30;0.30;;;;;;;4.93;82.06;99860.09;5057584;28;20199;-67
2023/04/08 06:06:00;;;;;;;1.63;1.53;;;;;;;4.91;82.17;99854.13;5057152;28;20047;-67
2023/04/08 06:08:30;;;;;;;8.02;5.78;;;;;;;4.93;81.85;99859.22;5056765;28;20057;-67
2023/04/08 06:10:59;;;;;;;7.32;5.50;;;;;;;4.95;82.13;99853.38;5057198;28;20056;-67
2023/04/08 06:13:28;;;;;;;3.63;3.33;;;;;;;4.95;81.45;99853.38;5057665;28;20434;-67
2023/04/08 06:15:57;;;;;;;6.57;5.95;;;;;;;5.04;81.53;99866.25;5057373;28;20080;-67
2023/04/08 06:18:25;;;;;;;2.85;2.47;;;;;;;5.07;81.41;99863.78;5057326;28;20060;-67
2023/04/08 06:20:54;;;;;;;5.00;3.95;;;;;;;5.06;81.31;99859.53;5056903;28;20037;-67
2023/04/08 06:23:23;;;;;;;5.13;3.00;;;;;;;5.05;81.54;99860.38;5057213;28;20034;-67
2023/04/08 06:25:55;;;;;;;5.50;3.15;;;;;;;5.10;81.29;99868.94;5056655;28;20339;-68
2023/04/08 06:28:24;;;;;;;3.97;3.58;;;;;;;5.12;80.89;99871.50;5057113;28;20550;-68
2023/04/08 06:30:53;;;;;;;7.45;2.65;;;;;;;5.14;80.86;99870.72;5057283;28;20442;-68
2023/04/08 06:33:21;;;;;;;0.47;0.47;;;;;;;5.14;80.95;99874.91;5057057;28;20136;-67
2023/04/08 06:35:50;;;;;;;0.30;0.30;;;;;;;5.12;80.57;99879.94;5056473;28;20080;-67
2023/04/08 06:38:19;;;;;;;1.77;1.63;;;;;;;5.14;80.59;99875.78;5056569;28;20107;-67
2023/04/08 06:40:48;;;;;;;0.30;0.30;;;;;;;5.14;80.48;99885.88;5056626;28;20045;-67
2023/04/08 06:43:18;;;;;;;1.08;0.98;;;;;;;5.15;80.59;99887.63;5056547;28;20041;-67
2023/04/08 06:45:47;;;;;;;0.82;0.82;;;;;;;5.14;80.66;99888.41;5056085;28;20091;-67
2023/04/08 06:48:15;;;;;;;0.25;0.25;;;;;;;5.14;80.61;99888.41;5055221;28;20052;-67
2023/04/08 06:50:44;;;;;;;0.65;0.65;;;;;;;5.17;80.49;99891.03;5056432;28;20494;-67
2023/04/08 06:53:13;;;;;;;0.55;0.55;;;;;;;5.20;80.17;99901.22;5056461;28;20068;-68
2023/04/08 06:55:42;;;;;;;0.73;0.47;;;;;;;5.28;80.38;99903.91;5056302;28;20041;-67
2023/04/08 06:58:10;;;;;;;0.40;0.40;;;;;;;5.33;80.36;99898.16;5056547;28;20136;-68
2023/04/08 07:00:42;;;;;;;1.67;1.55;;;;;;;5.34;80.02;99904.94;5056504;28;20518;-68
2023/04/08 07:03:11;;;;;;;0.40;0.40;;;;;;;5.33;79.89;99898.16;5055472;28;20049;-67
2023/04/08 07:05:40;;;;;;;0.50;0.50;;;;;;;5.30;79.78;99908.19;5055988;28;20080;-68
2023/04/08 07:08:09;;;;;;;0.50;0.50;;;;;;;5.25;79.80;99904.72;5055243;28;20049;-69
2023/04/08 07:10:38;;;;;;;0.60;0.60;;;;;;;5.24;79.48;99903.00;5056192;28;20049;-69
2023/04/08 07:13:07;;;;;;;0.30;0.30;;;;;;;5.24;79.25;99903.00;5055639;28;20091;-68
2023/04/08 07:15:35;;;;;;;1.73;0.85;;;;;;;5.25;78.85;99914.84;5055754;28;20083;-68
2023/04/08 07:18:06;;;;;;;0.40;0.40;;;;;;;5.31;79.33;99914.97;5056132;28;20045;-68
2023/04/08 07:20:37;;;;;;;0.30;0.30;;;;;;;5.33;78.87;99918.41;5055917;28;20538;-69
2023/04/08 07:23:06;;;;;;;0.40;0.40;;;;;;;5.36;78.77;99926.06;5055978;28;20434;-67
2023/04/08 07:25:35;;;;;;;0.27;0.27;;;;;;;5.38;78.88;99926.09;5055986;28;20045;-67
2023/04/08 07:28:04;;;;;;;0.30;0.30;;;;;;;5.42;78.76;99933.78;5055945;28;20445;-67
2023/04/08 07:30:32;;;;;;;1.33;1.23;;;;;;;5.50;78.67;99931.44;5055548;28;20213;-68
2023/04/08 07:33:01;;;;;;;1.80;1.65;;;;;;;5.55;78.96;99929.88;5055894;28;20041;-67
2023/04/08 07:35:32;;;;;;;0.53;0.53;;;;;;;5.58;78.43;99935.03;5055002;28;20053;-68
2023/04/08 07:38:00;;;;;;;0.40;0.40;;;;;;;5.58;78.34;99942.63;5055526;28;20056;-68
2023/04/08 07:40:29;;;;;;;3.00;1.23;;;;;;;5.55;78.31;99941.66;5055341;28;20581;-67
2023/04/08 07:42:58;;;;;;;0.63;0.63;;;;;;;5.56;78.20;99946.78;5055387;28;20059;-67
2023/04/08 07:45:27;;;;;;;0.98;0.63;;;;;;;5.62;78.01;99946.06;5055162;28;20090;-68
2023/04/08 07:47:56;;;;;;;0.32;0.32;;;;;;;5.71;78.16;99946.28;5055528;28;20498;-68
2023/04/08 07:50:25;;;;;;;0.60;0.60;;;;;;;5.74;78.22;99951.41;5055553;28;20037;-67
2023/04/08 07:52:55;;;;;;;0.70;0.65;;;;;;;5.79;78.37;99954.91;5055150;28;20045;-68
2023/04/08 07:55:24;;;;;;;1.55;1.05;;;;;;;5.78;78.17;99959.09;5055187;28;20566;-67
2023/04/08 07:57:53;;;;;;;0.20;0.20;;;;;;;5.81;78.53;99954.13;5055040;28;20106;-67
2023/04/08 08:00:23;;;;;;;0.30;0.30;;;;;;;5.90;78.14;99954.34;5055136;28;20044;-68
2023/04/08 08:02:52;;;;;;;1.50;1.40;;;;;;;5.94;78.03;99960.34;5055336;28;20053;-68
2023/04/08 08:05:21;;;;;;;0.80;0.80;;;;;;;5.94;78.19;99960.34;5054735;28;20037;-68
2023/04/08 08:07:50;;;;;;;0.43;0.43;;;;;;;5.94;78.24;99960.34;5054807;28;20064;-67
2023/04/08 08:10:20;;;;;;;0.57;0.50;;;;;;;5.98;78.22;99959.59;5054842;28;20041;-68
2023/04/08 08:12:49;;;;;;;4.13;1.60;;;;;;;5.96;78.25;99948.56;5055351;28;20437;-67
2023/04/08 08:15:18;;;;;;;0.63;0.63;;;;;;;6.09;78.31;99960.69;5053521;28;20045;-68
2023/04/08 08:17:46;;;;;;;0.53;0.53;;;;;;;6.21;78.48;99966.03;5055028;28;20136;-68
2023/04/08 08:20:15;;;;;;;0.40;0.40;;;;;;;6.26;78.14;99963.56;5054482;28;20044;-67
2023/04/08 08:22:44;;;;;;;0.80;0.80;;;;;;;6.33;78.21;99965.41;5054431;28;20048;-68
2023/04/08 08:25:27;;;;;;;0.52;0.52;;;;;;;6.41;77.86;99967.25;5053412;28;20057;-67
2023/04/08 08:27:56;;;;;;;1.10;0.93;;;;;;;6.38;78.28;99969.72;5054349;28;20049;-67
2023/04/08 08:30:25;;;;;;;1.02;0.95;;;;;;;6.38;77.87;99962.13;5054228;28;20099;-69
2023/04/08 08:32:55;;;;;;;1.13;1.10;;;;;;;6.41;78.24;99968.94;5054299;28;20475;-68
2023/04/08 08:35:24;;;;;;;1.08;0.63;;;;;;;6.39;78.06;99971.44;5054006;28;20076;-67
2023/04/08 08:37:53;;;;;;;0.32;0.32;;;;;;;6.49;77.79;99973.34;5054373;28;20080;-68
2023/04/08 08:40:21;;;;;;;0.73;0.73;;;;;;;6.58;77.42;99973.53;5054273;28;20041;-68
2023/04/08 08:42:52;;;;;;;0.63;0.63;;;;;;;6.72;77.40;99969.59;5054343;28;20555;-69
2023/04/08 08:45:21;;;;;;;0.43;0.43;;;;;;;6.73;77.24;99968.78;5054144;28;20073;-67
2023/04/08 08:47:51;;;;;;;0.60;0.60;;;;;;;6.78;76.75;99971.38;5053940;28;20044;-68
2023/04/08 08:50:20;;;;;;;2.90;1.27;;;;;;;6.81;76.70;99976.53;5054024;28;20131;-68
2023/04/08 08:52:50;;;;;;;0.40;0.40;;;;;;;6.85;76.01;99977.44;5053981;28;20094;-68
2023/04/08 08:55:19;;;;;;;0.70;0.70;;;;;;;6.91;76.08;99982.63;5053899;28;20091;-68
2023/04/08 08:58:09;;;;;;;0.50;0.50;;;;;;;6.95;75.96;99987.78;5054295;28;20402;-68
2023/04/08 09:00:39;;;;;;;0.82;0.75;;;;;;;6.97;75.66;99987.81;5054514;28;20384;-68
2023/04/08 09:03:19;;;;;;;0.30;0.30;;;;;;;7.04;75.70;99989.63;5054240;28;20076;-68
2023/04/08 09:05:52;;;;;;;0.40;0.40;;;;;;;7.02;75.31;99993.81;5053808;28;20128;-68
2023/04/08 09:08:26;;;;;;;0.32;0.32;;;;;;;6.92;74.52;99987.72;5053817;28;20037;-68
2023/04/08 09:10:55;;;;;;;0.70;0.70;;;;;;;6.98;74.08;99990.34;5054173;28;20064;-69
2023/04/08 09:13:25;;;;;;;0.38;0.38;;;;;;;7.09;74.21;99995.63;5053673;28;20056;-68
2023/04/08 09:16:04;;;;;;;4.10;1.58;;;;;;;6.98;72.99;99999.69;5054059;28;20566;-68
2023/04/08 09:18:34;;;;;;;0.63;0.63;;;;;;;7.00;73.37;100003.09;5053647;28;20124;-68
2023/04/08 09:21:04;;;;;;;0.43;0.43;;;;;;;7.08;73.34;100006.63;5053887;28;20393;-69
2023/04/08 09:23:44;;;;;;;0.85;0.82;;;;;;;7.02;72.40;100006.50;5053490;28;20037;-69
2023/04/08 09:26:15;;;;;;;0.50;0.50;;;;;;;7.06;72.46;100013.34;5053185;28;20072;-68
2023/04/08 09:28:59;;;;;;;0.38;0.38;;;;;;;7.11;72.26;100007.53;5053568;28;20049;-68
2023/04/08 09:31:40;;;;;;;5.38;1.15;;;;;;;7.20;72.43;100011.91;5053772;28;20506;-69
2023/04/08 09:34:12;;;;;;;0.90;0.85;;;;;;;7.36;72.68;100019.84;5053221;28;20102;-69
2023/04/08 09:36:43;;;;;;;0.52;0.52;;;;;;;7.32;72.31;100015.53;5053462;28;20095;-69
2023/04/08 09:39:11;;;;;;;;;;;;;;;7.24;71.68;100023.84;5053815;28;20131;-68
2023/04/08 09:41:41;;;;;;;0.50;0.50;;;;;;;7.36;72.42;100014.78;5053357;28;20359;-68
2023/04/08 09:44:12;;;;;;;1.55;1.00;;;;;;;7.43;72.18;100020.78;5053409;28;20044;-68
2023/04/08 09:46:51;;;;;;;0.57;0.57;;;;;;;7.34;71.26;100025.72;5053310;28;20037;-69
2023/04/08 09:49:27;;;;;;;0.85;0.73;;;;;;;7.29;71.17;100028.16;5053246;28;20057;-70
2023/04/08 09:52:07;;;;;;;0.40;0.40;;;;;;;7.23;71.05;100022.13;5053679;28;20131;-69
2023/04/08 09:54:44;;;;;;;0.45;0.45;;;;;;;7.17;70.00;100022.88;5053603;28;20081;-68
2023/04/08 09:57:17;;;;;;;0.50;0.50;;;;;;;7.26;69.42;100027.25;5053659;28;20483;-68
2023/04/08 09:59:58;;;;;;;1.00;1.00;;;;;;;7.30;69.25;100018.84;5053232;28;20051;-68
2023/04/08 10:02:33;;;;;;;0.28;0.28;;;;;;;7.33;68.65;100024.00;5053377;28;20064;-68
2023/04/08 10:05:05;;;;;;;0.60;0.60;;;;;;;7.44;68.76;100019.94;5053552;28;20041;-68
2023/04/08 10:07:36;;;;;;;0.75;0.60;;;;;;;7.57;68.82;100014.25;5053052;28;20053;-67
2023/04/08 10:10:06;;;;;;;0.53;0.53;;;;;;;7.56;67.82;100022.69;5053162;28;20041;-70
2023/04/08 10:12:36;;;;;;;1.33;1.25;;;;;;;7.50;66.86;100029.38;5053330;28;20048;-69
2023/04/08 10:15:24;;;;;;;0.28;0.28;;;;;;;7.66;67.10;100023.69;5053021;28;20041;-69
2023/04/08 10:17:54;;;;;;;0.80;0.80;;;;;;;7.79;66.60;100020.53;5053099;28;20056;-69
2023/04/08 10:20:41;;;;;;;0.50;0.50;;;;;;;7.91;66.57;100024.13;5052961;28;20060;-69
2023/04/08 10:23:12;;;;;;;0.93;0.70;;;;;;;7.94;65.63;100021.63;5053338;28;20441;-69
2023/04/08 10:25:41;;;;;;;0.40;0.40;;;;;;;7.97;64.96;100020.81;5053192;28;20049;-69
2023/04/08 10:28:25;;;;;;;1.35;1.25;;;;;;;8.06;65.03;100021.81;5053166;28;20548;-69
2023/04/08 10:30:56;;;;;;;0.60;0.60;;;;;;;8.13;64.91;100018.50;5053274;28;20491;-68
2023/04/08 10:33:34;;;;;;;1.13;1.02;;;;;;;8.20;64.76;100013.53;5052889;28;20041;-69
2023/04/08 10:36:13;;;;;;;0.40;0.40;;;;;;;8.32;64.55;100013.75;5052783;28;20106;-68
2023/04/08 10:38:43;;;;;;;0.40;0.40;;;;;;;8.45;64.30;100011.38;5055194;28;20506;-69
2023/04/08 10:41:12;;;;;;;0.60;0.60;;;;;;;8.51;63.84;100013.16;5056810;28;20107;-69
2023/04/08 10:43:42;;;;;;;0.52;0.52;;;;;;;8.58;63.40;100017.47;5056560;28;20040;-69
2023/04/08 10:46:12;;;;;;;0.50;0.50;;;;;;;8.62;62.63;100014.13;5056400;28;20041;-69
2023/04/08 10:48:41;;;;;;;0.50;0.50;;;;;;;8.60;63.43;100015.78;5056417;28;20517;-69
2023/04/08 10:51:10;;;;;;;0.57;0.57;;;;;;;8.61;63.47;100012.44;5056572;28;20111;-69
2023/04/08 10:53:39;;;;;;;;;;;;;;;8.49;63.44;100018.22;5057152;28;20057;-69
2023/04/08 10:56:11;;;;;;;0.68;0.68;;;;;;;8.51;63.27;100011.47;5055380;28;20003;-69
2023/04/08 10:58:49;;;;;;;0.65;0.63;;;;;;;8.54;62.57;100014.03;5056324;28;20071;-69
2023/04/08 11:01:20;;;;;;;1.52;0.88;;;;;;;8.54;63.25;99995.38;5056303;28;20564;-69
2023/04/08 11:03:49;;;;;;;1.08;0.85;;;;;;;8.56;62.79;100008.97;5056071;28;20052;-69
2023/04/08 11:06:19;;;;;;;1.10;0.68;;;;;;;8.35;63.10;100009.53;5056142;28;20049;-70
2023/04/08 11:08:48;;;;;;;0.50;0.50;;;;;;;8.38;63.15;100008.72;5056171;28;20045;-70
2023/04/08 11:11:20;;;;;;;2.10;1.15;;;;;;;8.44;63.07;100013.91;5056357;28;20154;-70
2023/04/08 11:13:49;;;;;;;2.05;1.15;;;;;;;8.44;62.89;100008.81;5056049;28;20059;-70
2023/04/08 11:16:24;;;;;;;0.68;0.68;;;;;;;8.46;64.10;100013.09;5055861;28;20045;-71
2023/04/08 11:18:54;;;;;;;0.73;0.73;;;;;;;8.33;63.86;100012.88;5056236;28;20048;-70
2023/04/08 11:21:28;;;;;;;0.40;0.40;;;;;;;8.30;64.10;100007.78;5055729;28;20087;-70
2023/04/08 11:23:57;;;;;;;0.80;0.80;;;;;;;8.26;64.35;100003.44;5056180;28;20045;-70
2023/04/08 11:26:27;;;;;;;1.20;1.10;;;;;;;8.26;63.77;100013.59;5055577;28;20479;-70
2023/04/08 11:28:57;;;;;;;0.98;0.70;;;;;;;8.21;63.99;100010.13;5055500;28;20049;-70
2023/04/08 11:31:31;;;;;;;8.30;2.70;;;;;;;8.15;64.79;100016.00;5055713;28;20128;-70
2023/04/08 11:34:03;;;;;;;1.02;0.98;;;;;;;8.21;64.29;100015.22;5055845;28;20407;-70
2023/04/08 11:36:34;;;;;;;0.88;0.88;;;;;;;8.18;64.18;100010.13;5056200;28;20052;-70
2023/04/08 11:39:08;;;;;;;0.30;0.30;;;;;;;8.13;64.51;100013.44;5054585;28;20045;-70
2023/04/08 11:41:39;;;;;;;1.00;0.95;;;;;;;8.05;65.39;100022.66;5055523;28;20055;-70
2023/04/08 11:44:08;;;;;;;1.58;1.48;;;;;;;7.94;65.11;100015.72;5055366;28;20056;-70
2023/04/08 11:46:39;;;;;;;0.73;0.73;;;;;;;7.88;66.60;100020.69;5055355;28;20072;-70
2023/04/08 11:49:10;;;;;;;0.60;0.47;;;;;;;7.83;65.71;100023.16;5054923;28;20140;-71
2023/04/08 11:51:56;;;;;;;0.40;0.40;;;;;;;7.81;67.01;100029.03;5055199;28;20053;-71
2023/04/08 11:54:28;;;;;;;0.82;0.80;;;;;;;7.81;66.90;100027.34;5055157;28;20059;-70
2023/04/08 11:56:58;;;;;;;2.72;1.95;;;;;;;7.85;67.12;100025.72;5055253;28;20048;-71